Time;durP1;ratioP1;P1;durP2;ratioP2;P2;SDS_P1;SDS_P2;PMS_P1;PMS_P2;Temp;Humidity;BMP_temperature;BMP_pressure;BME280_temperature;BME280_humidity;BME280_pressure;Samples;Min_cycle;Max_cycle;Signal;HPM_P1;HPM_P2
2023/12/28 00:00:12;;;;;;;328.17;135.50;;;;;;;12.80;nan;99226.97;5069781;28;20128;-68
2023/12/28 00:02:42;;;;;;;302.75;132.60;;;;;;;12.84;nan;99236.19;5070516;28;20048;-68
2023/12/28 00:05:11;;;;;;;318.98;130.50;;;;;;;12.92;nan;99234.19;5071658;28;20052;-68
2023/12/28 00:07:41;;;;;;;320.58;134.20;;;;;;;12.82;nan;99230.25;5068914;28;20056;-67
2023/12/28 00:10:10;;;;;;;304.77;129.95;;;;;;;12.82;nan;99236.41;5057638;28;20076;-67
2023/12/28 00:12:40;;;;;;;318.35;131.60;;;;;;;12.81;nan;99233.94;5057147;28;20076;-68
2023/12/28 00:15:10;;;;;;;305.30;129.75;;;;;;;13.03;nan;99235.50;5045500;28;20041;-68
2023/12/28 00:17:39;;;;;;;327.88;130.90;;;;;;;12.91;nan;99239.72;5058353;28;20052;-68
2023/12/28 00:20:09;;;;;;;313.98;131.55;;;;;;;12.87;nan;99233.97;5055287;28;20052;-67
2023/12/28 00:22:39;;;;;;;314.33;128.07;;;;;;;12.71;nan;99236.09;5060890;28;20045;-69
2023/12/28 00:25:08;;;;;;;291.67;130.73;;;;;;;12.84;nan;99234.34;5063417;28;20460;-69
2023/12/28 00:27:38;;;;;;;281.80;122.85;;;;;;;12.79;nan;99235.97;5061830;28;20650;-70
2023/12/28 00:30:07;;;;;;;300.77;130.05;;;;;;;12.84;nan;99236.19;5061314;28;20452;-70
2023/12/28 00:32:37;;;;;;;289.65;123.90;;;;;;;12.59;nan;99241.94;5059448;28;20036;-69
2023/12/28 00:35:07;;;;;;;296.90;130.18;;;;;;;12.57;nan;99233.31;5063924;28;20138;-66
2023/12/28 00:37:37;;;;;;;275.00;118.57;;;;;;;12.69;nan;99231.00;5060181;28;20499;-70
2023/12/28 00:40:07;;;;;;;291.70;124.50;;;;;;;12.72;nan;99227.94;5061086;28;20106;-70
2023/12/28 00:42:36;;;;;;;295.02;124.80;;;;;;;12.91;nan;99235.25;5058348;28;20048;-70
2023/12/28 00:45:06;;;;;;;273.95;121.35;;;;;;;12.68;nan;99226.69;5050493;28;20357;-69
2023/12/28 00:47:36;;;;;;;285.67;121.68;;;;;;;12.59;nan;99236.63;5062686;28;20094;-70
2023/12/28 00:50:06;;;;;;;265.63;117.90;;;;;;;12.59;nan;99241.13;5061648;28;20142;-68
2023/12/28 00:52:36;;;;;;;266.58;120.30;;;;;;;12.60;nan;99240.13;5060269;28;20032;-67
2023/12/28 00:55:07;;;;;;;264.83;114.43;;;;;;;12.61;nan;99233.78;5063301;28;20049;-68
2023/12/28 00:57:37;;;;;;;280.85;113.22;;;;;;;12.71;nan;99233.44;5060442;28;20051;-68
2023/12/28 01:00:08;;;;;;;281.30;116.15;;;;;;;12.50;nan;99234.28;5060596;28;20215;-68
2023/12/28 01:02:38;;;;;;;286.50;119.90;;;;;;;12.27;nan;99242.47;5060955;28;20043;-68
2023/12/28 01:05:08;;;;;;;255.00;113.88;;;;;;;12.48;nan;99237.13;5043087;28;20044;-67
2023/12/28 01:07:37;;;;;;;265.48;114.50;;;;;;;12.51;nan;99246.56;5048746;28;20045;-68
2023/12/28 01:10:07;;;;;;;271.83;117.30;;;;;;;12.41;nan;99238.94;5062858;28;20083;-68
2023/12/28 01:12:37;;;;;;;269.58;113.47;;;;;;;12.40;nan;99245.25;5056204;28;20559;-68
2023/12/28 01:15:07;;;;;;;271.80;115.75;;;;;;;12.45;nan;99236.69;5060153;28;20167;-68
2023/12/28 01:17:38;;;;;;;279.02;116.57;;;;;;;12.46;nan;99243.66;5063726;28;20336;-68
2023/12/28 01:20:08;;;;;;;280.25;120.07;;;;;;;12.53;nan;99253.31;5061566;28;20444;-68
2023/12/28 01:22:37;;;;;;;269.08;116.68;;;;;;;12.61;nan;99249.72;5063999;28;20070;-67
2023/12/28 01:25:07;;;;;;;267.02;115.72;;;;;;;12.52;nan;99251.69;5059041;28;20060;-68
2023/12/28 01:27:37;;;;;;;261.98;114.10;;;;;;;12.47;nan;99255.94;5062874;28;20098;-68
2023/12/28 01:30:07;;;;;;;254.50;111.60;;;;;;;12.39;nan;99262.19;5062475;28;20650;-64
2023/12/28 01:32:36;;;;;;;261.67;108.75;;;;;;;12.37;nan;99258.09;5048732;28;20045;-64
2023/12/28 01:35:06;;;;;;;241.88;110.10;;;;;;;12.44;nan;99265.09;5057250;28;20053;-63
2023/12/28 01:37:36;;;;;;;211.65;99.85;;;;;;;12.35;nan;99258.28;5029096;28;20136;-64
2023/12/28 01:40:06;;;;;;;238.65;105.55;;;;;;;12.38;nan;99276.50;5048860;28;20052;-64
2023/12/28 01:42:36;;;;;;;220.00;99.82;;;;;;;12.59;nan;99271.16;5062034;28;20703;-64
2023/12/28 01:45:06;;;;;;;216.85;101.30;;;;;;;12.41;nan;99278.78;5061331;28;20729;-63
2023/12/28 01:47:36;;;;;;;205.18;100.00;;;;;;;12.49;nan;99275.97;5057720;28;20107;-63
2023/12/28 01:50:06;;;;;;;219.43;100.63;;;;;;;12.53;nan;99276.41;5039040;28;20415;-64
2023/12/28 01:52:37;;;;;;;235.30;103.57;;;;;;;12.32;nan;99285.22;5033626;28;20037;-63
2023/12/28 01:55:08;;;;;;;213.65;99.30;;;;;;;12.40;nan;99279.78;5030206;28;20049;-64
2023/12/28 01:57:40;;;;;;;221.32;100.43;;;;;;;12.25;nan;99276.38;5044699;28;20143;-63
2023/12/28 02:00:11;;;;;;;214.98;100.00;;;;;;;12.16;nan;99280.16;5030236;28;20061;-64
2023/12/28 02:02:43;;;;;;;203.73;98.20;;;;;;;12.22;nan;99274.06;5038619;28;20444;-64
2023/12/28 02:05:13;;;;;;;195.70;94.97;;;;;;;12.07;nan;99279.44;5043279;28;20047;-64
2023/12/28 02:07:43;;;;;;;207.45;98.03;;;;;;;12.23;nan;99278.38;5033230;28;20057;-64
2023/12/28 02:10:12;;;;;;;197.40;94.22;;;;;;;12.27;nan;99276.16;5022920;28;20056;-64
2023/12/28 02:12:42;;;;;;;204.00;94.60;;;;;;;12.32;nan;99287.88;5034037;28;20118;-63
2023/12/28 02:15:12;;;;;;;204.63;96.75;;;;;;;12.46;nan;99281.69;5038512;28;20063;-64
2023/12/28 02:17:58;;;;;;;198.15;93.70;;;;;;;12.34;nan;99280.56;5023639;28;20080;-65
2023/12/28 02:20:30;;;;;;;192.38;93.05;;;;;;;12.44;nan;99283.69;5031700;28;20524;-64
2023/12/28 02:22:59;;;;;;;191.90;93.78;;;;;;;12.17;nan;99287.09;5032748;28;20132;-64
2023/12/28 02:25:29;;;;;;;196.32;93.55;;;;;;;12.21;nan;99287.56;5028543;28;20052;-64
2023/12/28 02:27:59;;;;;;;206.48;93.20;;;;;;;12.12;nan;99294.81;5027888;28;20041;-65
2023/12/28 02:30:29;;;;;;;183.32;90.88;;;;;;;12.10;nan;99294.16;5040067;28;20049;-64
2023/12/28 02:33:02;;;;;;;190.88;91.75;;;;;;;12.02;nan;99289.81;5038589;28;20465;-64
2023/12/28 02:35:57;;;;;;;193.80;92.65;;;;;;;12.18;nan;99295.88;5052961;28;20045;-64
2023/12/28 02:38:32;;;;;;;211.73;95.57;;;;;;;12.03;nan;99298.59;5034081;28;20049;-65
2023/12/28 02:41:03;;;;;;;211.45;96.30;;;;;;;11.95;nan;99299.50;5037892;28;20079;-64
2023/12/28 02:43:34;;;;;;;185.75;88.53;;;;;;;12.02;nan;99297.78;5057379;28;20041;-64
2023/12/28 02:46:04;;;;;;;184.55;88.97;;;;;;;12.08;nan;99312.94;5024296;28;20045;-64
2023/12/28 02:48:34;;;;;;;192.13;89.53;;;;;;;12.10;nan;99310.94;5042975;28;20049;-64
2023/12/28 02:51:04;;;;;;;186.18;89.85;;;;;;;12.10;nan;99302.97;5046141;28;20053;-64
2023/12/28 02:53:33;;;;;;;191.20;90.85;;;;;;;12.21;nan;99306.16;5045880;28;20053;-64
2023/12/28 02:56:03;;;;;;;181.90;89.35;;;;;;;12.13;nan;99299.09;5060828;28;20059;-64
2023/12/28 02:58:32;;;;;;;191.75;88.03;;;;;;;12.19;nan;99305.50;5049240;28;20148;-64
2023/12/28 03:01:04;;;;;;;209.00;90.70;;;;;;;11.86;nan;99305.94;5033400;28;20496;-64
2023/12/28 03:03:34;;;;;;;220.02;94.72;;;;;;;11.83;nan;99308.16;5038806;28;20049;-64
2023/12/28 03:06:04;;;;;;;207.38;97.47;;;;;;;12.00;nan;99304.25;5030937;28;20083;-64
2023/12/28 03:08:33;;;;;;;206.32;95.65;;;;;;;12.12;nan;99313.41;5034858;28;20571;-64
2023/12/28 03:11:03;;;;;;;217.07;100.85;;;;;;;12.05;nan;99310.66;5029694;28;20053;-64
2023/12/28 03:13:32;;;;;;;225.35;99.05;;;;;;;12.09;nan;99313.75;5035896;28;20061;-64
2023/12/28 03:16:02;;;;;;;226.82;103.93;;;;;;;12.23;nan;99312.91;5036550;28;20065;-64
2023/12/28 03:18:31;;;;;;;255.13;106.28;;;;;;;12.12;nan;99319.53;5035731;28;20041;-64
2023/12/28 03:21:01;;;;;;;258.63;107.72;;;;;;;12.29;nan;99320.13;5029308;28;20041;-67
2023/12/28 03:23:31;;;;;;;288.85;111.50;;;;;;;12.17;nan;99328.78;5056863;28;20106;-64
2023/12/28 03:26:01;;;;;;;254.32;109.68;;;;;;;12.42;nan;99322.91;5045311;28;20044;-64
2023/12/28 03:28:31;;;;;;;297.40;113.57;;;;;;;12.59;nan;99328.81;5034845;28;20048;-64
2023/12/28 03:31:03;;;;;;;291.10;116.22;;;;;;;12.41;nan;99329.25;5057918;28;20051;-64
2023/12/28 03:33:34;;;;;;;303.85;116.07;;;;;;;12.36;nan;99331.63;5035376;28;20529;-64
2023/12/28 03:36:04;;;;;;;317.60;124.05;;;;;;;12.45;nan;99335.81;5034592;28;20045;-64
2023/12/28 03:38:33;;;;;;;329.17;129.07;;;;;;;12.33;nan;99337.34;5032218;28;20358;-64
2023/12/28 03:41:03;;;;;;;341.38;130.30;;;;;;;12.30;nan;99351.00;5033630;28;20041;-64
2023/12/28 03:43:32;;;;;;;324.17;123.60;;;;;;;12.30;nan;99348.34;5038263;28;20033;-64
2023/12/28 03:46:02;;;;;;;330.50;130.40;;;;;;;12.37;nan;99349.22;5044236;28;20731;-65
2023/12/28 03:48:31;;;;;;;327.02;126.10;;;;;;;12.29;nan;99352.00;5050452;28;20852;-64
2023/12/28 03:51:00;;;;;;;325.00;126.28;;;;;;;12.27;nan;99353.19;5035529;28;20137;-63
2023/12/28 03:53:33;;;;;;;305.90;124.80;;;;;;;12.40;nan;99354.16;5049103;28;20048;-64
2023/12/28 03:56:03;;;;;;;314.52;125.80;;;;;;;12.32;nan;99362.25;5036556;28;20148;-64
2023/12/28 03:58:32;;;;;;;323.35;127.95;;;;;;;12.45;nan;99366.88;5043539;28;20041;-63
2023/12/28 04:01:02;;;;;;;347.50;143.85;;;;;;;12.57;nan;99366.19;5039111;28;20053;-65
2023/12/28 04:03:31;;;;;;;338.17;139.10;;;;;;;12.61;nan;99370.09;5040619;28;20061;-65
2023/12/28 04:06:01;;;;;;;291.50;122.50;;;;;;;12.45;nan;99369.53;5032470;28;20044;-63
2023/12/28 04:08:32;;;;;;;287.48;124.28;;;;;;;12.31;nan;99371.22;5053096;28;20052;-64
2023/12/28 04:11:01;;;;;;;319.30;125.95;;;;;;;12.25;nan;99373.81;5042104;28;20067;-64
2023/12/28 04:13:36;;;;;;;308.95;126.63;;;;;;;12.49;nan;99395.53;5047192;28;20380;-64
2023/12/28 04:16:06;;;;;;;323.88;129.18;;;;;;;12.76;nan;99396.63;5042781;28;20056;-64
2023/12/28 04:18:35;;;;;;;315.73;129.30;;;;;;;12.92;nan;99401.69;5046512;28;20049;-64
2023/12/28 04:21:09;;;;;;;315.73;130.25;;;;;;;12.80;nan;99410.38;5057197;28;20041;-64
2023/12/28 04:23:41;;;;;;;293.58;128.00;;;;;;;12.72;nan;99405.19;5052153;28;20049;-65
2023/12/28 04:26:11;;;;;;;285.05;127.75;;;;;;;12.81;nan;99404.03;5032861;28;20634;-64
2023/12/28 04:28:40;;;;;;;323.38;131.20;;;;;;;12.87;nan;99403.28;5034045;28;20064;-65
2023/12/28 04:31:10;;;;;;;307.40;127.22;;;;;;;12.72;nan;99410.50;5035365;28;20551;-65
2023/12/28 04:33:39;;;;;;;291.65;128.32;;;;;;;12.74;nan;99408.47;5046529;28;20099;-65
2023/12/28 04:36:09;;;;;;;311.38;127.93;;;;;;;12.74;nan;99414.63;5030621;28;20745;-65
2023/12/28 04:38:39;;;;;;;301.75;126.28;;;;;;;12.83;nan;99412.66;5044794;28;20111;-63
2023/12/28 04:41:11;;;;;;;310.42;132.77;;;;;;;12.86;nan;99410.44;5033555;28;20130;-63
2023/12/28 04:43:40;;;;;;;295.92;124.95;;;;;;;12.76;nan;99414.41;5035398;28;20649;-63
2023/12/28 04:46:10;;;;;;;309.27;131.68;;;;;;;12.91;nan;99412.53;5044096;28;20515;-62
2023/12/28 04:48:40;;;;;;;300.77;129.65;;;;;;;12.97;nan;99409.91;5046670;28;20059;-63
2023/12/28 04:51:09;;;;;;;312.05;134.00;;;;;;;12.96;nan;99410.13;5038225;28;20055;-59
2023/12/28 04:53:40;;;;;;;293.60;133.60;;;;;;;13.08;nan;99411.25;5042296;28;20098;-63
2023/12/28 04:56:09;;;;;;;296.00;126.30;;;;;;;12.95;nan;99411.13;5033697;28;20049;-63
2023/12/28 04:58:39;;;;;;;304.02;125.50;;;;;;;12.93;nan;99403.34;5035128;28;20049;-63
2023/12/28 05:01:09;;;;;;;301.05;126.53;;;;;;;13.10;nan;99409.22;5027108;28;20056;-63
2023/12/28 05:03:40;;;;;;;306.48;128.10;;;;;;;13.08;nan;99413.91;5032616;28;20055;-64
2023/12/28 05:06:09;;;;;;;282.73;124.40;;;;;;;12.97;nan;99409.91;5025102;28;20048;-63
2023/12/28 05:08:39;;;;;;;291.98;125.60;;;;;;;13.07;nan;99415.75;5028663;28;20041;-62
2023/12/28 05:11:08;;;;;;;302.48;128.82;;;;;;;13.15;nan;99406.00;5042063;28;20045;-63
2023/12/28 05:13:39;;;;;;;297.77;129.90;;;;;;;13.17;nan;99404.81;5054123;28;20053;-63
2023/12/28 05:16:09;;;;;;;297.58;129.70;;;;;;;13.19;nan;99405.44;5034875;28;20049;-63
2023/12/28 05:18:38;;;;;;;297.27;128.55;;;;;;;13.40;nan;99412.59;5029682;28;20046;-63
2023/12/28 05:21:08;;;;;;;284.63;128.10;;;;;;;13.51;nan;99412.03;5033812;28;20052;-64
2023/12/28 05:23:37;;;;;;;296.73;132.50;;;;;;;13.41;nan;99409.72;5031691;28;20045;-63
2023/12/28 05:26:07;;;;;;;308.67;133.18;;;;;;;13.31;nan;99406.59;5033953;28;20488;-60
2023/12/28 05:28:36;;;;;;;315.50;131.05;;;;;;;13.27;nan;99408.00;5032057;28;20049;-63
2023/12/28 05:31:06;;;;;;;314.05;134.23;;;;;;;13.21;nan;99390.13;5036115;28;20053;-63
2023/12/28 05:33:35;;;;;;;320.92;135.55;;;;;;;13.34;nan;99400.03;5030170;28;20048;-63
2023/12/28 05:36:06;;;;;;;305.80;133.50;;;;;;;13.40;nan;99405.44;5033698;28;20648;-63
2023/12/28 05:38:38;;;;;;;298.77;130.50;;;;;;;13.63;nan;99407.81;5026350;28;20075;-63
2023/12/28 05:41:11;;;;;;;299.75;128.65;;;;;;;13.73;nan;99402.97;5035464;28;20110;-63
2023/12/28 05:43:41;;;;;;;292.73;129.00;;;;;;;13.81;nan;99402.00;5044661;28;20402;-62
2023/12/28 05:46:10;;;;;;;314.63;129.98;;;;;;;13.90;nan;99401.66;5031569;28;20130;-61
2023/12/28 05:48:39;;;;;;;279.63;125.78;;;;;;;14.03;nan;99402.75;5022763;28;20057;-64
2023/12/28 05:51:09;;;;;;;275.98;130.38;;;;;;;13.93;nan;99390.63;5032911;28;20042;-62
2023/12/28 05:53:38;;;;;;;299.65;127.65;;;;;;;14.28;nan;99388.72;5030767;28;20056;-62
2023/12/28 05:56:09;;;;;;;285.73;129.25;;;;;;;14.39;nan;99388.16;5030822;28;20672;-63
2023/12/28 05:58:40;;;;;;;303.95;132.75;;;;;;;14.78;nan;99389.31;5029491;28;20640;-62
2023/12/28 06:01:09;;;;;;;289.95;129.73;;;;;;;14.69;nan;99379.84;5051792;28;20115;-62
2023/12/28 06:03:39;;;;;;;283.27;131.50;;;;;;;14.48;nan;99372.81;5033371;28;20481;-62
2023/12/28 06:06:08;;;;;;;283.08;130.57;;;;;;;14.79;nan;99366.94;5026752;28;20042;-62
2023/12/28 06:08:38;;;;;;;270.92;128.82;;;;;;;14.98;nan;99373.31;5029524;28;20455;-62
2023/12/28 06:11:07;;;;;;;260.67;129.52;;;;;;;15.09;nan;99354.84;5036077;28;20048;-63
2023/12/28 06:13:37;;;;;;;262.35;124.68;;;;;;;15.33;nan;99361.41;5032966;28;20103;-62
2023/12/28 06:16:06;;;;;;;266.98;128.18;;;;;;;15.41;nan;99355.84;5034604;28;20522;-63
2023/12/28 06:18:36;;;;;;;244.15;124.20;;;;;;;15.44;nan;99354.63;5032837;28;20133;-63
2023/12/28 06:21:06;;;;;;;258.90;123.05;;;;;;;15.83;nan;99351.09;5022751;28;20080;-63
2023/12/28 06:23:35;;;;;;;254.98;124.05;;;;;;;15.88;nan;99346.75;5032196;28;20160;-63
2023/12/28 06:26:06;;;;;;;259.27;125.07;;;;;;;15.96;nan;99345.69;5035264;28;20059;-63
2023/12/28 06:28:36;;;;;;;249.63;122.68;;;;;;;16.09;nan;99335.78;5037696;28;20045;-63
2023/12/28 06:31:05;;;;;;;231.13;122.80;;;;;;;16.09;nan;99335.78;5033360;28;20606;-63
2023/12/28 06:33:35;;;;;;;239.85;123.88;;;;;;;16.01;nan;99330.69;5040873;28;20053;-63
2023/12/28 06:36:07;;;;;;;242.60;118.93;;;;;;;16.02;nan;99321.59;5032389;28;20120;-63
2023/12/28 06:38:37;;;;;;;252.95;124.90;;;;;;;16.07;nan;99326.31;5034203;28;20049;-63
2023/12/28 06:41:13;;;;;;;233.27;122.28;;;;;;;16.16;nan;99319.69;5033579;28;20053;-63
2023/12/28 06:43:42;;;;;;;238.27;124.40;;;;;;;16.24;nan;99322.16;5039534;28;20053;-63
2023/12/28 06:46:12;;;;;;;239.10;124.63;;;;;;;16.30;nan;99313.25;5049786;28;20051;-62
2023/12/28 06:48:43;;;;;;;239.70;125.40;;;;;;;16.42;nan;99308.06;5037844;28;20045;-62
2023/12/28 06:51:20;;;;;;;229.07;121.57;;;;;;;16.31;nan;99303.38;5033879;28;20049;-63
2023/12/28 06:53:50;;;;;;;236.88;126.28;;;;;;;16.44;nan;99304.13;5049231;28;20036;-63
2023/12/28 06:56:19;;;;;;;225.93;121.57;;;;;;;16.18;nan;99297.09;5037090;28;20049;-62
2023/12/28 06:58:49;;;;;;;233.43;121.95;;;;;;;16.46;nan;99296.69;5037993;28;20442;-62
2023/12/28 07:01:18;;;;;;;229.82;123.78;;;;;;;16.83;nan;99292.34;5043332;28;20053;-62
2023/12/28 07:03:48;;;;;;;227.73;119.97;;;;;;;16.68;nan;99289.19;5051709;28;20048;-63
2023/12/28 07:06:17;;;;;;;210.50;116.28;;;;;;;17.01;nan;99284.38;5035890;28;20134;-60
2023/12/28 07:08:47;;;;;;;209.93;114.65;;;;;;;16.76;nan;99280.91;5034162;28;20041;-62
2023/12/28 07:11:17;;;;;;;210.20;117.57;;;;;;;16.84;nan;99272.59;5052915;28;20045;-62
2023/12/28 07:13:46;;;;;;;213.85;121.78;;;;;;;17.21;nan;99268.16;5038650;28;20048;-61
2023/12/28 07:16:15;;;;;;;212.02;122.45;;;;;;;17.19;nan;99269.38;5034060;28;20056;-63
2023/12/28 07:18:45;;;;;;;212.27;122.72;;;;;;;17.32;nan;99262.03;5036002;28;20053;-63
2023/12/28 07:21:14;;;;;;;231.88;122.25;;;;;;;17.23;nan;99257.19;5049509;28;20048;-63
2023/12/28 07:23:48;;;;;;;246.52;130.85;;;;;;;17.16;nan;99256.47;5041525;28;20048;-63
2023/12/28 07:26:18;;;;;;;233.30;130.30;;;;;;;17.08;nan;99257.56;5026336;28;20087;-65
2023/12/28 07:28:48;;;;;;;237.00;134.27;;;;;;;16.96;nan;99254.78;5038379;28;20045;-65
2023/12/28 07:31:25;;;;;;;243.25;133.48;;;;;;;17.22;nan;99253.69;5040650;28;20800;-64
2023/12/28 07:33:55;;;;;;;248.85;137.00;;;;;;;17.31;nan;99249.69;5032084;28;20642;-64
2023/12/28 07:36:25;;;;;;;243.65;133.18;;;;;;;17.25;nan;99244.41;5028917;28;20654;-65
2023/12/28 07:38:54;;;;;;;247.30;136.18;;;;;;;17.24;nan;99237.44;5058049;28;20041;-67
2023/12/28 07:41:24;;;;;;;246.10;134.32;;;;;;;17.10;nan;99238.59;5060970;28;20049;-68
2023/12/28 07:43:53;;;;;;;253.10;139.65;;;;;;;17.04;nan;99232.25;5049807;28;20430;-64
2023/12/28 07:46:23;;;;;;;244.27;136.07;;;;;;;16.84;nan;99227.13;5033316;28;20059;-66
2023/12/28 07:48:52;;;;;;;233.93;132.05;;;;;;;17.10;nan;99223.34;5044778;28;20048;-66
2023/12/28 07:51:22;;;;;;;226.00;129.55;;;;;;;17.05;nan;99220.53;5051259;28;20114;-66
2023/12/28 07:53:51;;;;;;;232.50;130.73;;;;;;;16.88;nan;99212.25;5037377;28;20048;-65
2023/12/28 07:56:21;;;;;;;227.50;129.57;;;;;;;16.91;nan;99211.81;5034986;28;20068;-65
2023/12/28 07:58:50;;;;;;;236.75;129.23;;;;;;;16.95;nan;99213.00;5026390;28;20223;-64
2023/12/28 08:01:20;;;;;;;225.00;124.65;;;;;;;16.79;nan;99213.56;5049102;28;20052;-64
2023/12/28 08:03:49;;;;;;;226.55;127.00;;;;;;;16.94;nan;99208.72;5044425;28;20531;-64
2023/12/28 08:06:19;;;;;;;224.07;128.32;;;;;;;16.80;nan;99201.84;5054497;28;20110;-65
2023/12/28 08:08:48;;;;;;;227.70;128.30;;;;;;;17.12;nan;99207.91;5045810;28;20468;-64
2023/12/28 08:11:18;;;;;;;214.73;125.57;;;;;;;17.34;nan;99203.75;5037323;28;20049;-64
2023/12/28 08:13:47;;;;;;;236.65;124.65;;;;;;;17.22;nan;99199.34;5044174;28;20059;-65
2023/12/28 08:16:17;;;;;;;228.88;125.28;;;;;;;17.13;nan;99195.34;5034799;28;20136;-64
2023/12/28 08:18:47;;;;;;;218.20;122.35;;;;;;;17.27;nan;99197.63;5032417;28;20471;-64
2023/12/28 08:21:17;;;;;;;228.90;122.32;;;;;;;17.38;nan;99190.72;5027570;28;20418;-64
2023/12/28 08:23:46;;;;;;;222.43;120.10;;;;;;;17.42;nan;99184.69;5043783;28;20130;-63
2023/12/28 08:26:16;;;;;;;234.55;126.10;;;;;;;17.46;nan;99179.72;5049797;28;20111;-64
2023/12/28 08:28:45;;;;;;;218.50;119.88;;;;;;;17.28;nan;99187.75;5033317;28;20049;-63
2023/12/28 08:31:15;;;;;;;237.35;122.90;;;;;;;17.65;nan;99185.91;5061751;28;20132;-63
2023/12/28 08:33:44;;;;;;;222.68;118.28;;;;;;;17.53;nan;99173.22;5054551;28;20076;-64
2023/12/28 08:36:17;;;;;;;201.60;114.38;;;;;;;17.44;nan;99174.56;5046813;28;20057;-64
2023/12/28 08:38:47;;;;;;;224.73;118.35;;;;;;;17.66;nan;99172.25;5049690;28;20053;-62
2023/12/28 08:41:26;;;;;;;215.63;115.45;;;;;;;17.68;nan;99172.84;5030877;28;20064;-64
2023/12/28 08:43:56;;;;;;;209.20;108.90;;;;;;;17.62;nan;99171.06;5051442;28;20056;-64
2023/12/28 08:46:26;;;;;;;216.60;108.80;;;;;;;17.53;nan;99173.22;5039680;28;20056;-63
2023/12/28 08:48:55;;;;;;;202.77;107.68;;;;;;;17.38;nan;99164.78;5032975;28;20133;-63
2023/12/28 08:51:25;;;;;;;208.05;104.97;;;;;;;17.23;nan;99155.47;5034442;28;20053;-64
2023/12/28 08:53:55;;;;;;;193.38;105.50;;;;;;;17.44;nan;99157.69;5037683;28;20041;-64
2023/12/28 08:56:24;;;;;;;202.63;104.25;;;;;;;17.35;nan;99153.66;5035310;28;20053;-64
2023/12/28 08:58:56;;;;;;;197.55;104.50;;;;;;;17.38;nan;99154.06;5044313;28;20044;-63
2023/12/28 09:01:26;;;;;;;200.88;105.78;;;;;;;17.34;nan;99157.41;5042232;28;20120;-64
2023/12/28 09:03:56;;;;;;;193.50;101.18;;;;;;;17.48;nan;99154.31;5040887;28;20072;-64
2023/12/28 09:06:26;;;;;;;200.02;104.03;;;;;;;17.56;nan;99150.53;5049608;28;20049;-64
2023/12/28 09:08:56;;;;;;;182.80;103.10;;;;;;;17.68;nan;99151.44;5043770;28;20063;-64
2023/12/28 09:11:27;;;;;;;190.57;103.78;;;;;;;17.23;nan;99144.75;5046027;28;20049;-64
2023/12/28 09:13:56;;;;;;;196.25;101.20;;;;;;;17.55;nan;99143.53;5037023;28;20123;-64
2023/12/28 09:16:26;;;;;;;191.90;101.95;;;;;;;17.62;nan;99146.97;5041527;28;20108;-64
2023/12/28 09:18:56;;;;;;;189.18;102.63;;;;;;;17.65;nan;99140.34;5043789;28;20045;-64
2023/12/28 09:21:26;;;;;;;178.63;96.85;;;;;;;17.33;nan;99139.72;5051590;28;20053;-63
2023/12/28 09:23:56;;;;;;;186.45;99.95;;;;;;;17.40;nan;99138.56;5038066;28;20059;-64
2023/12/28 09:26:25;;;;;;;189.07;103.13;;;;;;;17.54;nan;99147.25;5047195;28;20506;-64
2023/12/28 09:28:55;;;;;;;182.23;99.57;;;;;;;17.46;nan;99139.53;5051986;28;20041;-64
2023/12/28 09:31:24;;;;;;;173.35;95.68;;;;;;;17.49;nan;99137.22;5040934;28;20045;-64
2023/12/28 09:33:54;;;;;;;180.85;99.10;;;;;;;17.57;nan;99146.78;5043317;28;20045;-64
2023/12/28 09:36:24;;;;;;;174.05;94.55;;;;;;;17.36;nan;99148.09;5036230;28;20195;-64
2023/12/28 09:38:53;;;;;;;179.32;95.95;;;;;;;17.37;nan;99149.75;5034218;28;20822;-64
2023/12/28 09:41:26;;;;;;;168.05;91.50;;;;;;;17.26;nan;99149.69;5036054;28;20049;-63
2023/12/28 09:44:21;;;;;;;180.13;92.82;;;;;;;17.18;nan;99144.63;5042663;28;20045;-64
2023/12/28 09:46:53;;;;;;;164.65;90.32;;;;;;;17.23;nan;99144.75;5055216;28;20186;-64
2023/12/28 09:49:23;;;;;;;171.57;92.93;;;;;;;17.16;nan;99134.16;5051456;28;20048;-64
2023/12/28 09:51:53;;;;;;;162.10;88.80;;;;;;;17.28;nan;99147.59;5035021;28;20046;-65
2023/12/28 09:54:23;;;;;;;173.40;92.93;;;;;;;17.14;nan;99146.09;5029198;28;20618;-64
2023/12/28 09:56:53;;;;;;;166.73;90.63;;;;;;;17.00;nan;99154.28;5037031;28;20646;-64
2023/12/28 09:59:24;;;;;;;161.43;89.03;;;;;;;16.87;nan;99146.41;5050684;28;20045;-64
2023/12/28 10:01:56;;;;;;;155.57;88.03;;;;;;;17.04;nan;99147.44;5039476;28;20049;-64
2023/12/28 10:04:28;;;;;;;167.75;89.43;;;;;;;17.08;nan;99145.16;5034656;28;20074;-64
2023/12/28 10:06:59;;;;;;;167.48;89.25;;;;;;;17.03;nan;99151.19;5038137;28;20045;-65
2023/12/28 10:09:30;;;;;;;156.40;87.65;;;;;;;17.06;nan;99148.06;5034346;28;20111;-64
2023/12/28 10:12:03;;;;;;;155.60;83.87;;;;;;;16.86;nan;99147.44;5022168;28;20045;-64
2023/12/28 10:14:34;;;;;;;157.10;82.80;;;;;;;16.96;nan;99150.41;5056130;28;20055;-64
2023/12/28 10:17:03;;;;;;;158.45;85.30;;;;;;;16.95;nan;99159.47;5047398;28;20045;-65
2023/12/28 10:19:33;;;;;;;154.88;85.45;;;;;;;16.84;nan;99152.22;5031810;28;20424;-64
2023/12/28 10:22:03;;;;;;;161.05;84.10;;;;;;;16.80;nan;99155.53;5032102;28;20413;-65
2023/12/28 10:24:32;;;;;;;168.00;83.53;;;;;;;16.89;nan;99156.91;5042300;28;20072;-64
2023/12/28 10:27:02;;;;;;;162.45;86.20;;;;;;;16.85;nan;99147.69;5040479;28;20135;-65
2023/12/28 10:29:32;;;;;;;156.20;85.13;;;;;;;16.96;nan;99154.94;5035340;28;20471;-64
2023/12/28 10:32:01;;;;;;;174.13;91.65;;;;;;;16.71;nan;99146.16;5042287;28;20064;-66
2023/12/28 10:34:30;;;;;;;153.85;85.30;;;;;;;16.78;nan;99154.94;5036911;28;20136;-65
2023/12/28 10:37:01;;;;;;;163.30;84.18;;;;;;;16.76;nan;99152.50;5045618;28;20144;-64
2023/12/28 10:39:34;;;;;;;152.88;83.53;;;;;;;16.47;nan;99143.25;5035568;28;20134;-64
2023/12/28 10:42:09;;;;;;;155.47;86.13;;;;;;;16.63;nan;99144.59;5034584;28;20152;-64
2023/12/28 10:44:45;;;;;;;153.23;84.22;;;;;;;16.63;nan;99143.78;5042781;28;20160;-66
2023/12/28 10:47:17;;;;;;;159.23;82.90;;;;;;;16.81;nan;99146.50;5040918;28;20171;-65
2023/12/28 10:49:53;;;;;;;162.10;86.50;;;;;;;16.70;nan;99150.69;5042487;28;20665;-64
2023/12/28 10:52:28;;;;;;;159.57;85.68;;;;;;;16.89;nan;99149.69;5037300;28;20046;-64
2023/12/28 10:55:15;;;;;;;159.38;85.70;;;;;;;16.64;nan;99148.88;5041246;28;20663;-65
2023/12/28 10:57:58;;;;;;;159.57;83.22;;;;;;;16.57;nan;99156.13;5047795;28;20183;-64
2023/12/28 11:00:33;;;;;;;156.85;85.72;;;;;;;16.46;nan;99154.19;5021218;28;20049;-65
2023/12/28 11:03:09;;;;;;;155.05;84.45;;;;;;;16.33;nan;99160.44;5031298;28;20619;-64
2023/12/28 11:05:43;;;;;;;161.00;85.53;;;;;;;16.35;nan;99158.38;5032703;28;20559;-64
2023/12/28 11:08:15;;;;;;;168.48;85.65;;;;;;;16.24;nan;99150.28;5032535;28;20092;-64
2023/12/28 11:10:45;;;;;;;178.95;91.45;;;;;;;16.22;nan;99149.66;5035804;28;20049;-68
2023/12/28 11:13:15;;;;;;;186.48;93.10;;;;;;;16.24;nan;99144.94;5035841;28;20159;-67
2023/12/28 11:15:47;;;;;;;180.75;88.68;;;;;;;16.05;nan;99152.88;5040093;28;20048;-65
2023/12/28 11:18:18;;;;;;;180.00;91.32;;;;;;;16.12;nan;99150.97;5041305;28;20122;-67
2023/12/28 11:20:50;;;;;;;196.52;96.53;;;;;;;15.84;nan;99152.41;5043887;28;20142;-67
2023/12/28 11:23:20;;;;;;;188.77;91.72;;;;;;;15.94;nan;99158.88;5035399;28;20147;-66
2023/12/28 11:25:50;;;;;;;182.15;91.75;;;;;;;16.01;nan;99157.00;5032362;28;20735;-67
2023/12/28 11:28:20;;;;;;;204.05;95.88;;;;;;;15.83;nan;99143.56;5058127;28;20455;-67
2023/12/28 11:30:51;;;;;;;199.15;97.03;;;;;;;15.80;nan;99146.66;4695938;28;9999865;-68
2023/12/28 11:33:21;;;;;;;201.30;95.47;;;;;;;15.99;nan;99152.91;5034264;28;20871;-69